createdAt,value
2023-02-19T00:01:41.927Z,101053.81
2023-02-19T00:04:14.145Z,101052.59
2023-02-19T00:06:41.653Z,101050.81
2023-02-19T00:09:08.046Z,101041.03
2023-02-19T00:11:35.201Z,101037.63
2023-02-19T00:14:02.856Z,101035.19
2023-02-19T00:16:31.929Z,101040.31
2023-02-19T00:18:59.924Z,101035.66
2023-02-19T00:21:26.990Z,101024.94
2023-02-19T00:23:59.242Z,101024.00
2023-02-19T00:26:26.393Z,101025.47
2023-02-19T00:28:54.004Z,101026.44
2023-02-19T00:31:22.337Z,101034.81
2023-02-19T00:33:51.906Z,101032.66
2023-02-19T00:36:18.407Z,101033.63
2023-02-19T00:38:44.990Z,101033.50
2023-02-19T00:41:19.319Z,101035.56
2023-02-19T00:43:54.526Z,101042.75
2023-02-19T00:46:29.832Z,101047.25
2023-02-19T00:48:57.024Z,101051.75
2023-02-19T00:51:26.996Z,101051.66
2023-02-19T00:53:54.119Z,101046.28
2023-02-19T00:56:21.049Z,101018.66
2023-02-19T00:58:48.147Z,101019.50
2023-02-19T01:01:14.808Z,101026.50
2023-02-19T01:03:42.183Z,101031.66
2023-02-19T01:06:58.645Z,101029.84
2023-02-19T01:09:24.920Z,101045.78
2023-02-19T01:11:51.221Z,101033.63
2023-02-19T01:14:17.544Z,101022.91
2023-02-19T01:16:43.837Z,101023.97
2023-02-19T01:19:10.207Z,101023.34
2023-02-19T01:21:36.578Z,101025.66
2023-02-19T01:24:03.049Z,101020.69
2023-02-19T01:26:32.233Z,101020.69
2023-02-19T01:29:02.141Z,101018.84
2023-02-19T01:31:29.300Z,101019.69
2023-02-19T01:33:58.718Z,101016.28
2023-02-19T01:36:26.197Z,101019.69
2023-02-19T01:38:52.587Z,101009.59
2023-02-19T01:41:22.756Z,101009.97
2023-02-19T01:44:27.466Z,101005.72
2023-02-19T01:46:58.581Z,101001.19
2023-02-19T01:49:29.086Z,101006.06
2023-02-19T01:52:25.575Z,100999.72
2023-02-19T01:54:54.646Z,100999.97
2023-02-19T01:57:25.233Z,101001.06
2023-02-19T01:59:56.934Z,100992.06
2023-02-19T02:02:25.038Z,100986.19
2023-02-19T02:04:52.115Z,100987.81
2023-02-19T02:07:37.152Z,100975.72
2023-02-19T02:10:22.034Z,100976.69
2023-02-19T02:12:49.729Z,100972.44
2023-02-19T02:15:17.523Z,100970.88
2023-02-19T02:18:02.368Z,100974.63
2023-02-19T02:21:06.349Z,100959.78
2023-02-19T02:23:54.607Z,100955.41
2023-02-19T02:26:31.196Z,100946.59
2023-02-19T02:29:03.516Z,100945.75
2023-02-19T02:31:42.157Z,100937.97
2023-02-19T02:34:18.488Z,100939.19
2023-02-19T02:36:49.729Z,100939.28
2023-02-19T02:39:20.914Z,100940.97
2023-02-19T02:42:15.177Z,100948.28
2023-02-19T02:44:42.360Z,100944.88
2023-02-19T02:47:30.489Z,100941.22
2023-02-19T02:50:07.575Z,100942.81
2023-02-19T02:52:56.481Z,100943.56
2023-02-19T02:55:24.546Z,100948.81
2023-02-19T02:57:51.274Z,100937.09
2023-02-19T03:00:18.306Z,100925.88
2023-02-19T03:02:44.673Z,100925.28
2023-02-19T03:05:43.061Z,100922.75
2023-02-19T03:08:15.142Z,100919.34
2023-02-19T03:10:48.332Z,100928.94
2023-02-19T03:13:54.290Z,100924.44
2023-02-19T03:16:49.172Z,100924.81
2023-02-19T03:19:19.284Z,100920.44
2023-02-19T03:22:10.132Z,100923.13
2023-02-19T03:25:06.498Z,100923.00
2023-02-19T03:27:34.222Z,100927.63
2023-02-19T03:30:07.885Z,100936.63
2023-02-19T03:32:40.006Z,100940.28
2023-02-19T03:35:11.513Z,100932.84
2023-02-19T03:38:01.446Z,100932.97
2023-02-19T03:40:31.015Z,100933.97
2023-02-19T03:43:15.747Z,100932.97
2023-02-19T03:45:48.002Z,100940.03
2023-02-19T03:48:20.029Z,100931.03
2023-02-19T03:51:08.373Z,100929.56
2023-02-19T03:53:52.859Z,100940.03
2023-02-19T03:56:31.969Z,100938.34
2023-02-19T03:59:28.892Z,100950.38
2023-02-19T04:02:03.452Z,100942.22
2023-02-19T04:04:32.616Z,100947.97
2023-02-19T04:06:59.235Z,100938.09
2023-02-19T04:09:30.957Z,100940.50
2023-02-19T04:11:58.496Z,100939.53
2023-02-19T04:14:29.514Z,100932.09
2023-02-19T04:17:02.932Z,100930.91
2023-02-19T04:19:33.393Z,100925.16
2023-02-19T04:22:01.451Z,100917.84
2023-02-19T04:24:38.905Z,100931.25
2023-02-19T04:27:06.533Z,100930.53
2023-02-19T04:29:32.889Z,100923.94
2023-02-19T04:31:59.353Z,100917.97
2023-02-19T04:34:25.745Z,100922.22
2023-02-19T04:36:52.117Z,100922.94
2023-02-19T04:39:18.481Z,100925.50
2023-02-19T04:41:44.897Z,100940.00
2023-02-19T04:44:11.214Z,100930.66
2023-02-19T04:46:37.619Z,100922.97
2023-02-19T04:49:03.971Z,100946.34
2023-02-19T04:51:30.371Z,100943.31
2023-02-19T04:53:56.761Z,100949.06
2023-02-19T04:56:23.159Z,100955.75
2023-02-19T04:58:49.484Z,100961.59
2023-02-19T05:01:15.870Z,100948.69
2023-02-19T05:03:42.497Z,100938.81
2023-02-19T05:06:12.111Z,100948.03
2023-02-19T05:08:39.151Z,100952.91
2023-02-19T05:11:08.275Z,100966.50
2023-02-19T05:13:34.919Z,100970.16
2023-02-19T05:16:04.485Z,100976.63
2023-02-19T05:18:31.833Z,100984.25
2023-02-19T05:20:59.423Z,100990.72
2023-02-19T05:23:26.936Z,101000.78
2023-02-19T05:25:53.458Z,101010.41
2023-02-19T05:28:20.951Z,100997.88
2023-02-19T05:30:49.775Z,101003.44
2023-02-19T05:33:17.731Z,101007.09
2023-02-19T05:35:46.075Z,100999.84
2023-02-19T05:38:12.866Z,100998.84
2023-02-19T05:40:39.944Z,101000.78
2023-02-19T05:43:07.649Z,101005.56
2023-02-19T05:45:35.549Z,101005.28
2023-02-19T05:48:03.030Z,101018.06
2023-02-19T05:50:31.119Z,101019.19
2023-02-19T05:53:00.993Z,101019.63
2023-02-19T05:55:28.796Z,101031.31
2023-02-19T05:57:55.530Z,101036.78
2023-02-19T06:00:22.259Z,101038.75
2023-02-19T06:02:48.617Z,101032.53
2023-02-19T06:05:15.113Z,101039.47
2023-02-19T06:07:42.815Z,101043.00
2023-02-19T06:10:11.141Z,101045.56
2023-02-19T06:12:38.521Z,101049.44
2023-02-19T06:15:07.924Z,101054.78
2023-02-19T06:17:34.456Z,101060.53
2023-02-19T06:20:01.150Z,101064.94
2023-02-19T06:22:27.998Z,101058.72
2023-02-19T06:24:54.440Z,101068.34
2023-02-19T06:27:20.856Z,101074.88
2023-02-19T06:29:47.302Z,101067.25
2023-02-19T06:32:13.796Z,101071.75
2023-02-19T06:34:40.419Z,101063.50
2023-02-19T06:37:06.750Z,101059.34
2023-02-19T06:39:33.034Z,101077.22
2023-02-19T06:41:59.373Z,101068.47
2023-02-19T06:44:25.859Z,101085.31
2023-02-19T06:46:55.272Z,101083.00
2023-02-19T06:49:21.827Z,101094.94
2023-02-19T06:51:48.318Z,101098.38
2023-02-19T06:54:14.694Z,101100.66
2023-02-19T06:56:41.841Z,101107.94
2023-02-19T06:59:11.501Z,101111.34
2023-02-19T07:01:38.565Z,101122.22
2023-02-19T07:04:05.916Z,101127.34
2023-02-19T07:06:33.502Z,101116.06
2023-02-19T07:09:00.293Z,101126.78
2023-02-19T07:11:30.011Z,101119.31
2023-02-19T07:13:57.978Z,101114.59
2023-02-19T07:16:25.353Z,101132.25
2023-02-19T07:18:52.248Z,101114.81
2023-02-19T07:21:19.201Z,101121.41
2023-02-19T07:23:45.652Z,101132.53
2023-02-19T07:26:13.901Z,101127.69
2023-02-19T07:28:41.070Z,101137.03
2023-02-19T07:31:07.427Z,101136.72
2023-02-19T07:33:33.729Z,101132.50
2023-02-19T07:36:00.044Z,101133.34
2023-02-19T07:38:27.266Z,101133.34
2023-02-19T07:40:55.596Z,101139.56
2023-02-19T07:43:23.296Z,101142.50
2023-02-19T07:45:49.970Z,101156.13
2023-02-19T07:48:16.949Z,101162.34
2023-02-19T07:50:51.936Z,101167.69
2023-02-19T07:53:18.503Z,101173.13
2023-02-19T07:55:45.033Z,101167.06
2023-02-19T07:58:15.896Z,101169.75
2023-02-19T08:00:42.660Z,101170.59
2023-02-19T08:08:50.821Z,101177.53
2023-02-19T08:11:35.738Z,101174.97
2023-02-19T08:14:02.014Z,101187.81
2023-02-19T08:16:41.987Z,101190.16
2023-02-19T08:19:08.758Z,101199.91
2023-02-19T08:21:35.080Z,101200.19
2023-02-19T08:24:01.436Z,101200.41
2023-02-19T08:26:27.766Z,101204.19
2023-02-19T08:28:54.105Z,101212.69
2023-02-19T08:31:20.558Z,101221.13
2023-02-19T08:33:46.945Z,101223.19
2023-02-19T08:36:13.358Z,101233.34
2023-02-19T08:38:39.767Z,101241.47
2023-02-19T08:41:09.205Z,101237.94
2023-02-19T08:43:36.412Z,101244.44
2023-02-19T08:46:03.346Z,101242.50
2023-02-19T08:48:30.179Z,101253.84
2023-02-19T08:50:58.339Z,101244.63
2023-02-19T08:53:25.425Z,101266.69
2023-02-19T08:55:52.757Z,101262.06
2023-02-19T08:58:19.203Z,101272.34
2023-02-19T09:00:45.617Z,101265.41
2023-02-19T09:03:11.983Z,101270.31
2023-02-19T09:05:39.009Z,101257.13
2023-02-19T09:08:05.364Z,101268.34
2023-02-19T09:10:31.707Z,101259.00
2023-02-19T09:12:57.995Z,101270.44
2023-02-19T09:15:24.374Z,101249.09
2023-02-19T09:17:52.611Z,101268.38
2023-02-19T09:20:19.271Z,101273.00
2023-02-19T09:22:45.846Z,101289.84
2023-02-19T09:25:12.254Z,101282.31
2023-02-19T09:27:38.570Z,101285.47
2023-02-19T09:30:06.166Z,101293.56
2023-02-19T09:32:33.360Z,101290.59
2023-02-19T09:34:59.687Z,101290.22
2023-02-19T09:37:27.511Z,101282.91
2023-02-19T09:39:54.783Z,101284.25
2023-02-19T09:42:29.794Z,101291.59
2023-02-19T09:44:59.219Z,101281.81
2023-02-19T09:47:28.752Z,101293.63
2023-02-19T09:50:00.844Z,101288.66
2023-02-19T09:52:40.623Z,101292.44
2023-02-19T09:55:17.632Z,101287.19
2023-02-19T09:57:45.317Z,101295.88
2023-02-19T10:00:11.921Z,101300.63
2023-02-19T10:02:39.095Z,101298.66
2023-02-19T10:05:14.547Z,101295.38
2023-02-19T10:07:45.142Z,101292.94
2023-02-19T10:10:14.564Z,101306.50
2023-02-19T10:12:50.430Z,101300.75
2023-02-19T10:15:31.971Z,101291.09
2023-02-19T10:17:58.715Z,101299.28
2023-02-19T10:20:27.770Z,101304.06
2023-02-19T10:23:15.670Z,101304.78
2023-02-19T10:25:48.456Z,101319.69
2023-02-19T10:28:18.956Z,101325.28
2023-02-19T10:30:51.104Z,101335.06
2023-02-19T10:33:17.476Z,101335.31
2023-02-19T10:36:00.352Z,101337.16
2023-02-19T10:38:28.237Z,101332.84
2023-02-19T10:41:13.709Z,101342.22
2023-02-19T10:43:45.185Z,101348.13
2023-02-19T10:46:24.205Z,101350.16
2023-02-19T10:48:57.904Z,101360.75
2023-02-19T10:51:34.826Z,101374.81
2023-02-19T10:54:32.572Z,101373.78
2023-02-19T10:57:19.646Z,101371.47
2023-02-19T11:00:15.185Z,101371.63
2023-02-19T11:02:45.337Z,101365.16
2023-02-19T11:05:20.777Z,101385.31
2023-02-19T11:07:49.234Z,101385.34
2023-02-19T11:10:27.893Z,101399.88
2023-02-19T11:13:00.728Z,101387.81
2023-02-19T11:15:37.253Z,101392.59
2023-02-19T11:18:12.392Z,101386.97
2023-02-19T11:21:00.605Z,101381.38
2023-02-19T11:23:30.401Z,101385.88
2023-02-19T11:26:00.980Z,101369.25
2023-02-19T11:28:38.387Z,101380.97
2023-02-19T11:31:19.861Z,101383.03
2023-02-19T11:33:55.528Z,101383.09
2023-02-19T11:36:34.019Z,101378.50
2023-02-19T11:39:15.667Z,101382.00
2023-02-19T11:42:19.438Z,101373.13
2023-02-19T11:45:13.051Z,101357.22
2023-02-19T11:47:53.205Z,101374.25
2023-02-19T11:50:44.433Z,101370.59
2023-02-19T11:53:31.926Z,101382.72
2023-02-19T11:56:11.423Z,101390.50
2023-02-19T11:58:55.171Z,101410.25
2023-02-19T12:01:39.668Z,101400.94
2023-02-19T12:04:30.994Z,101382.28
2023-02-19T12:07:23.135Z,101394.91
2023-02-19T12:10:13.073Z,101407.09
2023-02-19T12:12:48.410Z,101403.19
2023-02-19T12:15:31.885Z,101400.28
2023-02-19T12:18:13.451Z,101381.97
2023-02-19T12:20:51.843Z,101385.66
2023-02-19T12:24:02.257Z,101397.84
2023-02-19T12:26:43.542Z,101378.06
2023-02-19T12:29:23.076Z,101387.28
2023-02-19T12:32:13.325Z,101382.03
2023-02-19T12:34:50.053Z,101388.84
2023-02-19T12:37:48.607Z,101392.50
2023-02-19T12:40:37.204Z,101391.00
2023-02-19T12:43:13.597Z,101388.22
2023-02-19T12:46:06.361Z,101382.25
2023-02-19T12:48:42.861Z,101373.91
2023-02-19T12:51:19.282Z,101374.22
2023-02-19T12:54:14.870Z,101370.19
2023-02-19T12:56:53.506Z,101378.47
2023-02-19T12:59:33.689Z,101372.38
2023-02-19T13:02:10.608Z,101371.59
2023-02-19T13:05:01.409Z,101371.09
2023-02-19T13:07:58.305Z,101377.09
2023-02-19T13:10:41.125Z,101374.63
2023-02-19T13:13:15.861Z,101364.53
2023-02-19T13:15:50.083Z,101373.00
2023-02-19T13:18:22.878Z,101373.34
2023-02-19T13:20:51.758Z,101369.19
2023-02-19T13:23:42.231Z,101368.69
2023-02-19T13:26:38.718Z,101369.47
2023-02-19T13:29:08.015Z,101365.16
2023-02-19T13:32:11.945Z,101358.34
2023-02-19T13:34:54.912Z,101370.41
2023-02-19T13:37:22.360Z,101374.97
2023-02-19T13:39:50.987Z,101380.28
2023-02-19T13:42:36.000Z,101376.56
2023-02-19T13:45:05.026Z,101377.78
2023-02-19T13:47:49.817Z,101371.75
2023-02-19T13:50:25.624Z,101381.13
2023-02-19T13:52:54.444Z,101380.06
2023-02-19T13:55:46.755Z,101377.84
2023-02-19T13:58:50.400Z,101378.72
2023-02-19T14:01:18.371Z,101387.16
2023-02-19T14:04:07.902Z,101391.19
2023-02-19T14:07:05.141Z,101396.34
2023-02-19T14:09:34.539Z,101393.03
2023-02-19T14:12:04.860Z,101398.03
2023-02-19T14:14:35.810Z,101393.22
2023-02-19T14:17:25.589Z,101399.59
2023-02-19T14:20:15.297Z,101410.75
2023-02-19T14:22:57.448Z,101421.75
2023-02-19T14:25:33.182Z,101419.47
2023-02-19T14:28:27.361Z,101414.00
2023-02-19T14:31:01.087Z,101406.53
2023-02-19T14:33:34.063Z,101420.09
2023-02-19T14:36:06.074Z,101421.56
2023-02-19T14:38:38.308Z,101419.00
2023-02-19T14:41:06.546Z,101432.56
2023-02-19T14:43:34.857Z,101434.28
2023-02-19T14:46:07.837Z,101436.47
2023-02-19T14:48:45.810Z,101428.63
2023-02-19T14:51:25.512Z,101428.63
2023-02-19T14:53:53.986Z,101437.41
2023-02-19T14:56:27.767Z,101429.09
2023-02-19T14:59:13.619Z,101423.00
2023-02-19T15:01:39.936Z,101435.56
2023-02-19T15:04:06.829Z,101433.22
2023-02-19T15:06:35.609Z,101431.53
2023-02-19T15:09:05.782Z,101431.13
2023-02-19T15:11:34.767Z,101433.81
2023-02-19T15:14:05.010Z,101439.81
2023-02-19T15:16:34.073Z,101453.81
2023-02-19T15:19:00.729Z,101461.44
2023-02-19T15:21:30.390Z,101477.72
2023-02-19T15:24:02.778Z,101475.94
2023-02-19T15:26:41.485Z,101476.75
2023-02-19T15:29:15.026Z,101478.03
2023-02-19T15:31:57.800Z,101478.41
2023-02-19T15:34:25.348Z,101471.78
2023-02-19T15:37:00.331Z,101478.22
2023-02-19T15:39:34.693Z,101472.63
2023-02-19T15:42:03.591Z,101472.31
2023-02-19T15:44:32.872Z,101479.47
2023-02-19T15:47:06.007Z,101485.97
2023-02-19T15:49:49.228Z,101480.91
2023-02-19T15:52:33.324Z,101479.19
2023-02-19T15:55:24.552Z,101472.09
2023-02-19T15:58:01.220Z,101472.00
2023-02-19T16:00:41.342Z,101472.38
2023-02-19T16:03:23.765Z,101467.19
2023-02-19T16:06:01.234Z,101460.31
2023-02-19T16:08:33.357Z,101460.78
2023-02-19T16:11:02.758Z,101461.69
2023-02-19T16:13:31.801Z,101459.34
2023-02-19T16:16:23.422Z,101459.09
2023-02-19T16:18:51.461Z,101452.06
2023-02-19T16:21:22.717Z,101449.78
2023-02-19T16:23:54.523Z,101444.53
2023-02-19T16:26:21.742Z,101442.00
2023-02-19T16:28:53.197Z,101448.13
2023-02-19T16:31:22.285Z,101444.09
2023-02-19T16:33:50.352Z,101443.00
2023-02-19T16:36:18.109Z,101452.44
2023-02-19T16:39:09.379Z,101458.22
2023-02-19T16:41:47.742Z,101452.44
2023-02-19T16:44:32.375Z,101462.94
2023-02-19T16:47:04.703Z,101471.53
2023-02-19T16:49:31.460Z,101461.88
2023-02-19T16:52:04.277Z,101467.13
2023-02-19T16:54:31.228Z,101467.88
2023-02-19T16:56:57.543Z,101468.41
2023-02-19T16:59:24.330Z,101476.47
2023-02-19T17:01:50.679Z,101473.38
2023-02-19T17:04:17.047Z,101494.06
2023-02-19T17:06:44.328Z,101502.22
2023-02-19T17:09:10.682Z,101499.44
2023-02-19T17:11:37.126Z,101510.38
2023-02-19T17:14:03.466Z,101498.38
2023-02-19T17:16:34.114Z,101528.38
2023-02-19T17:19:00.567Z,101521.31
2023-02-19T17:21:29.000Z,101531.94
2023-02-19T17:23:56.647Z,101519.06
2023-02-19T17:26:27.669Z,101533.75
2023-02-19T17:28:56.878Z,101543.53
2023-02-19T17:31:23.225Z,101545.47
2023-02-19T17:33:50.400Z,101550.28
2023-02-19T17:36:20.009Z,101558.75
2023-02-19T17:38:46.530Z,101566.81
2023-02-19T17:41:13.034Z,101560.88
2023-02-19T17:43:39.502Z,101570.00
2023-02-19T17:46:06.182Z,101570.97
2023-02-19T17:48:32.564Z,101571.94
2023-02-19T17:50:59.153Z,101573.03
2023-02-19T17:53:25.530Z,101574.72
2023-02-19T17:55:51.886Z,101571.72
2023-02-19T17:58:18.252Z,101573.94
2023-02-19T18:00:44.642Z,101576.00
2023-02-19T18:03:11.103Z,101587.88
2023-02-19T18:05:37.436Z,101592.38
2023-02-19T18:08:03.868Z,101594.88
2023-02-19T18:10:30.449Z,101602.03
2023-02-19T18:12:56.821Z,101614.38
2023-02-19T18:15:26.724Z,101608.34
2023-02-19T18:17:54.356Z,101612.53
2023-02-19T18:20:23.694Z,101619.06
2023-02-19T18:22:50.113Z,101631.53
2023-02-19T18:25:18.097Z,101629.38
2023-02-19T18:27:44.592Z,101630.34
2023-02-19T18:30:12.108Z,101631.91
2023-02-19T18:32:38.737Z,101634.03
2023-02-19T18:35:05.506Z,101631.56
2023-02-19T18:37:32.853Z,101643.28
2023-02-19T18:40:00.135Z,101631.81
2023-02-19T18:42:26.609Z,101632.66
2023-02-19T18:44:53.111Z,101639.22
2023-02-19T18:47:21.520Z,101632.22
2023-02-19T18:49:52.214Z,101636.94
2023-02-19T18:52:20.963Z,101629.97
2023-02-19T18:54:48.336Z,101636.53
2023-02-19T18:57:15.570Z,101627.81
2023-02-19T18:59:42.989Z,101628.56
2023-02-19T19:02:10.561Z,101629.97
2023-02-19T19:04:38.509Z,101631.34
2023-02-19T19:07:05.842Z,101626.22
2023-02-19T19:09:33.173Z,101630.59
2023-02-19T19:11:59.970Z,101629.66
2023-02-19T19:14:26.294Z,101627.06
2023-02-19T19:16:52.678Z,101626.31
2023-02-19T19:19:19.788Z,101620.28
2023-02-19T19:21:53.280Z,101622.56
2023-02-19T19:24:20.782Z,101621.38
2023-02-19T19:26:49.021Z,101620.72
2023-02-19T19:29:17.142Z,101620.91
2023-02-19T19:31:44.004Z,101630.13
2023-02-19T19:34:12.005Z,101623.34
2023-02-19T19:36:38.338Z,101631.25
2023-02-19T19:39:04.988Z,101636.63
2023-02-19T19:41:31.782Z,101636.94
2023-02-19T19:43:58.207Z,101645.81
2023-02-19T19:46:24.586Z,101643.16
2023-02-19T19:48:52.712Z,101630.50
2023-02-19T19:51:19.375Z,101628.13
2023-02-19T19:53:49.558Z,101631.59
2023-02-19T19:56:17.193Z,101636.16
2023-02-19T19:58:43.611Z,101634.25
2023-02-19T20:01:10.337Z,101647.75
2023-02-19T20:03:37.491Z,101641.44
2023-02-19T20:06:04.050Z,101653.34
2023-02-19T20:08:30.373Z,101652.22
2023-02-19T20:10:56.734Z,101647.19
2023-02-19T20:13:24.409Z,101653.28
2023-02-19T20:15:52.172Z,101648.16
2023-02-19T20:18:18.797Z,101650.94
2023-02-19T20:20:45.150Z,101656.56
2023-02-19T20:23:11.443Z,101659.34
2023-02-19T20:25:37.769Z,101662.03
2023-02-19T20:28:04.239Z,101669.19
2023-02-19T20:30:31.078Z,101664.00
2023-02-19T20:32:57.722Z,101663.94
2023-02-19T20:35:28.359Z,101661.34
2023-02-19T20:37:55.589Z,101670.25
2023-02-19T20:40:27.169Z,101680.88
2023-02-19T20:42:53.874Z,101683.53
2023-02-19T20:45:20.357Z,101694.25
2023-02-19T20:47:47.818Z,101701.50
2023-02-19T20:50:16.976Z,101700.84
2023-02-19T20:52:43.477Z,101694.41
2023-02-19T20:55:09.925Z,101694.84
2023-02-19T20:57:36.784Z,101685.84
2023-02-19T21:00:06.175Z,101677.06
2023-02-19T21:02:32.580Z,101682.31
2023-02-19T21:04:59.078Z,101679.63
2023-02-19T21:07:25.762Z,101671.41
2023-02-19T21:09:52.905Z,101672.56
2023-02-19T21:12:20.910Z,101676.16
2023-02-19T21:14:47.403Z,101678.19
2023-02-19T21:17:13.886Z,101691.56
2023-02-19T21:19:40.528Z,101684.31
2023-02-19T21:22:07.125Z,101694.03
2023-02-19T21:24:33.504Z,101695.00
2023-02-19T21:27:00.026Z,101701.03
2023-02-19T21:29:26.930Z,101706.41
2023-02-19T21:31:55.507Z,101717.38
2023-02-19T21:34:25.129Z,101721.59
2023-02-19T21:36:52.127Z,101722.56
2023-02-19T21:39:21.113Z,101716.41
2023-02-19T21:41:47.702Z,101704.19
2023-02-19T21:44:16.644Z,101705.25
2023-02-19T21:46:43.587Z,101708.69
2023-02-19T21:49:11.385Z,101704.38
2023-02-19T21:51:39.626Z,101702.75
2023-02-19T21:54:07.416Z,101706.13
2023-02-19T21:56:36.567Z,101702.75
2023-02-19T21:59:03.518Z,101711.66
2023-02-19T22:01:38.417Z,101713.94
2023-02-19T22:04:09.935Z,101714.22
2023-02-19T22:06:39.028Z,101711.94
2023-02-19T22:09:05.402Z,101710.50
2023-02-19T22:11:31.821Z,101719.69
2023-02-19T22:13:58.408Z,101712.44
2023-02-19T22:16:25.046Z,101717.09
2023-02-19T22:18:53.564Z,101728.81
2023-02-19T22:21:21.715Z,101734.38
2023-02-19T22:23:50.213Z,101731.78
2023-02-19T22:26:28.226Z,101743.41
2023-02-19T22:28:55.080Z,101744.22
2023-02-19T22:31:24.131Z,101741.44
2023-02-19T22:33:51.390Z,101742.97
2023-02-19T22:36:26.171Z,101743.06
2023-02-19T22:38:52.784Z,101750.31
2023-02-19T22:41:20.303Z,101747.84
2023-02-19T22:43:46.881Z,101744.38
2023-02-19T22:46:23.972Z,101737.66
2023-02-19T22:48:50.974Z,101730.84
2023-02-19T22:51:20.148Z,101736.66
2023-02-19T22:53:48.097Z,101736.44
2023-02-19T22:56:16.254Z,101740.75
2023-02-19T22:58:43.038Z,101735.00
2023-02-19T23:01:11.246Z,101726.22
2023-02-19T23:03:55.173Z,101740.44
2023-02-19T23:06:27.435Z,101746.75
2023-02-19T23:08:56.415Z,101740.28
2023-02-19T23:11:25.481Z,101746.28
2023-02-19T23:13:51.909Z,101744.56
2023-02-19T23:16:18.317Z,101731.00
2023-02-19T23:18:44.761Z,101723.34
2023-02-19T23:21:11.587Z,101719.59
2023-02-19T23:23:41.058Z,101726.00
2023-02-19T23:26:07.552Z,101732.53
2023-02-19T23:28:33.899Z,101739.69
2023-02-19T23:31:00.682Z,101735.94
2023-02-19T23:33:27.068Z,101743.22
2023-02-19T23:35:53.413Z,101755.72
2023-02-19T23:38:19.752Z,101756.41
2023-02-19T23:40:46.071Z,101766.75
2023-02-19T23:43:12.401Z,101765.13
2023-02-19T23:45:38.717Z,101767.94
2023-02-19T23:48:05.158Z,101765.31
2023-02-19T23:50:31.532Z,101759.19
2023-02-19T23:52:59.179Z,101760.41
2023-02-19T23:55:26.320Z,101758.28
2023-02-19T23:57:53.522Z,101754.66
